Time;durP1;ratioP1;P1;durP2;ratioP2;P2;SDS_P1;SDS_P2;PMS_P1;PMS_P2;Temp;Humidity;BMP_temperature;BMP_pressure;BME280_temperature;BME280_humidity;BME280_pressure;Samples;Min_cycle;Max_cycle;Signal;HPM_P1;HPM_P2
2021/09/02 00:00:18;;;;;;;9.30;6.63;;;16.60;99.90;;;;;;5017566;28;20189;-79
2021/09/02 00:02:44;;;;;;;9.30;6.40;;;16.60;99.90;;;;;;5016001;28;20586;-80
2021/09/02 00:05:10;;;;;;;11.43;6.83;;;16.60;99.90;;;;;;5034744;28;20202;-80
2021/09/02 00:07:35;;;;;;;8.43;5.97;;;16.60;99.90;;;;;;5034310;28;20181;-80
2021/09/02 00:10:01;;;;;;;14.10;7.17;;;16.60;99.90;;;;;;5034704;28;20178;-81
2021/09/02 00:12:27;;;;;;;8.30;6.20;;;16.60;99.90;;;;;;5032515;28;20210;-80
2021/09/02 00:14:52;;;;;;;9.47;5.77;;;16.50;99.90;;;;;;5034542;28;20200;-80
2021/09/02 00:17:18;;;;;;;9.10;6.80;;;16.60;99.90;;;;;;5034246;28;20188;-80
2021/09/02 00:19:43;;;;;;;10.70;6.50;;;16.60;99.90;;;;;;5034516;28;20296;-79
2021/09/02 00:22:09;;;;;;;8.40;6.13;;;16.60;99.90;;;;;;5033397;28;20242;-79
2021/09/02 00:24:35;;;;;;;8.57;6.50;;;16.60;99.90;;;;;;5033429;28;20197;-79
2021/09/02 00:27:01;;;;;;;7.83;6.47;;;16.60;99.90;;;;;;5033261;28;20186;-78
2021/09/02 00:29:26;;;;;;;10.53;6.80;;;16.60;99.90;;;;;;5015781;28;20637;-79
2021/09/02 00:31:52;;;;;;;7.33;5.30;;;16.60;99.90;;;;;;5031791;28;20471;-79
2021/09/02 00:34:18;;;;;;;10.20;6.60;;;16.60;99.90;;;;;;5032134;28;20220;-80
2021/09/02 00:36:43;;;;;;;8.57;5.60;;;16.60;99.90;;;;;;5033381;28;20179;-79
2021/09/02 00:39:09;;;;;;;8.80;6.90;;;16.60;99.90;;;;;;5031891;28;20269;-79
2021/09/02 00:41:37;;;;;;;7.50;5.90;;;16.60;99.90;;;;;;5034787;28;20206;-79
2021/09/02 00:44:03;;;;;;;7.30;5.70;;;16.60;99.90;;;;;;5033781;28;20176;-79
2021/09/02 00:46:28;;;;;;;7.30;5.63;;;16.60;99.90;;;;;;5034771;28;20507;-79
2021/09/02 00:48:54;;;;;;;6.57;5.53;;;16.60;99.90;;;;;;5033639;28;20207;-79
2021/09/02 00:51:22;;;;;;;7.40;5.97;;;16.60;99.90;;;;;;5034095;28;20280;-81
2021/09/02 00:53:51;;;;;;;8.37;5.37;;;16.60;99.90;;;;;;5032676;28;20935;-80
2021/09/02 00:56:17;;;;;;;8.60;5.70;;;16.60;99.90;;;;;;5032961;28;20534;-81
2021/09/02 00:58:43;;;;;;;6.60;5.50;;;16.50;99.90;;;;;;5032995;28;20432;-81
2021/09/02 01:01:09;;;;;;;10.20;5.80;;;16.60;99.90;;;;;;5034857;28;20420;-80
2021/09/02 01:03:36;;;;;;;9.00;5.60;;;16.50;99.90;;;;;;5035014;28;20420;-81
2021/09/02 01:06:03;;;;;;;7.90;5.70;;;16.50;99.90;;;;;;5034367;28;20198;-81
2021/09/02 01:08:29;;;;;;;12.53;6.80;;;16.50;99.90;;;;;;5035633;28;20834;-80
2021/09/02 01:10:54;;;;;;;11.80;5.77;;;16.50;99.90;;;;;;5035088;28;20421;-79
2021/09/02 01:13:21;;;;;;;7.27;5.53;;;16.50;99.90;;;;;;5033960;28;20570;-81
2021/09/02 01:15:47;;;;;;;8.97;5.87;;;16.50;99.90;;;;;;5034491;28;20285;-79
2021/09/02 01:18:12;;;;;;;7.70;5.10;;;16.50;99.90;;;;;;5033887;28;20455;-81
2021/09/02 01:20:39;;;;;;;6.20;4.83;;;16.50;99.90;;;;;;5035074;28;20421;-80
2021/09/02 01:23:06;;;;;;;6.10;5.10;;;16.50;99.90;;;;;;5034503;28;20176;-79
2021/09/02 01:25:34;;;;;;;8.37;5.60;;;16.50;99.90;;;;;;5034881;28;20436;-80
2021/09/02 01:28:07;;;;;;;8.00;5.97;;;16.60;99.90;;;;;;5034674;28;20970;-80
2021/09/02 01:30:34;;;;;;;11.43;5.77;;;16.60;99.90;;;;;;5034851;28;20417;-80
2021/09/02 01:33:00;;;;;;;6.93;5.67;;;16.60;99.90;;;;;;5034040;28;20464;-79
2021/09/02 01:35:27;;;;;;;6.50;4.73;;;16.50;99.90;;;;;;5033205;28;20426;-79
2021/09/02 01:38:01;;;;;;;8.13;6.10;;;16.50;99.90;;;;;;5031897;28;20775;-79
2021/09/02 01:40:27;;;;;;;7.33;4.97;;;16.50;99.90;;;;;;5033163;28;20408;-80
2021/09/02 01:42:56;;;;;;;7.00;5.73;;;16.40;99.90;;;;;;5031568;28;20573;-83
2021/09/02 01:45:22;;;;;;;6.03;4.90;;;16.50;99.90;;;;;;5015681;28;20198;-80
2021/09/02 01:47:48;;;;;;;8.40;5.43;;;16.50;99.90;;;;;;5033541;28;20443;-81
2021/09/02 01:50:21;;;;;;;8.00;5.50;;;16.50;99.90;;;;;;5033349;28;20186;-81
2021/09/02 01:52:49;;;;;;;9.43;5.60;;;16.50;99.90;;;;;;5033316;28;20451;-79
2021/09/02 01:55:14;;;;;;;6.63;4.87;;;16.50;99.90;;;;;;5035018;28;20448;-80
2021/09/02 01:57:41;;;;;;;7.87;5.20;;;16.50;99.90;;;;;;5037675;28;20408;-80
2021/09/02 02:00:09;;;;;;;5.70;5.00;;;16.50;99.90;;;;;;5037878;28;20209;-80
2021/09/02 02:02:35;;;;;;;7.10;5.37;;;16.50;99.90;;;;;;5037945;28;20505;-79
2021/09/02 02:05:00;;;;;;;7.40;5.20;;;16.50;99.90;;;;;;5036638;28;20463;-80
2021/09/02 02:07:26;;;;;;;7.13;5.70;;;16.40;99.90;;;;;;5037948;28;20178;-80
2021/09/02 02:09:52;;;;;;;8.63;6.43;;;16.40;99.90;;;;;;5035696;28;20268;-81
2021/09/02 02:12:18;;;;;;;9.93;6.90;;;16.30;99.90;;;;;;5036450;28;20239;-80
2021/09/02 02:14:43;;;;;;;9.77;6.37;;;16.30;99.90;;;;;;5035583;28;20445;-78
2021/09/02 02:17:09;;;;;;;7.17;5.43;;;16.30;99.90;;;;;;5036541;28;20173;-80
2021/09/02 02:19:34;;;;;;;7.43;5.50;;;16.30;99.90;;;;;;5035357;28;20262;-79
2021/09/02 02:22:00;;;;;;;8.80;6.27;;;16.30;99.90;;;;;;5036325;28;20193;-81
2021/09/02 02:24:26;;;;;;;8.20;5.57;;;16.30;99.90;;;;;;5035790;28;20243;-80
2021/09/02 02:26:51;;;;;;;10.23;5.83;;;16.30;99.90;;;;;;5037175;28;20177;-79
2021/09/02 02:29:17;;;;;;;8.70;5.50;;;16.30;99.90;;;;;;5037426;28;20600;-80
2021/09/02 02:31:43;;;;;;;7.60;5.73;;;16.30;99.90;;;;;;5019907;28;20216;-78
2021/09/02 02:34:09;;;;;;;11.23;6.73;;;16.20;99.90;;;;;;5036841;28;20177;-79
2021/09/02 02:36:34;;;;;;;8.30;6.23;;;16.20;99.90;;;;;;5036766;28;20184;-80
2021/09/02 02:39:00;;;;;;;8.23;6.00;;;16.10;99.90;;;;;;5035331;28;20819;-80
2021/09/02 02:41:25;;;;;;;8.00;6.43;;;16.20;99.90;;;;;;5035935;28;20199;-80
2021/09/02 02:43:51;;;;;;;7.70;6.00;;;16.20;99.90;;;;;;5035720;28;20200;-81
2021/09/02 02:46:17;;;;;;;9.10;6.70;;;16.10;99.90;;;;;;5036401;28;20645;-79
2021/09/02 02:48:42;;;;;;;7.70;6.33;;;16.10;99.90;;;;;;5035987;28;20264;-81
2021/09/02 02:51:08;;;;;;;9.93;5.77;;;16.10;99.90;;;;;;5017239;28;20881;-79
2021/09/02 02:53:34;;;;;;;6.80;5.53;;;16.10;99.90;;;;;;5035037;28;20292;-79
2021/09/02 02:55:59;;;;;;;10.40;6.73;;;16.10;99.90;;;;;;5037447;28;20550;-79
2021/09/02 02:58:25;;;;;;;8.17;5.97;;;16.10;99.90;;;;;;5036334;28;20193;-80
2021/09/02 03:00:51;;;;;;;7.80;6.00;;;16.00;99.90;;;;;;5035656;28;20180;-79
2021/09/02 03:03:17;;;;;;;7.87;5.80;;;16.00;99.90;;;;;;5037092;28;20181;-79
2021/09/02 03:05:42;;;;;;;9.93;6.47;;;16.00;99.90;;;;;;5038896;28;20445;-79
2021/09/02 03:08:08;;;;;;;9.53;6.60;;;16.00;99.90;;;;;;5040104;28;20187;-78
2021/09/02 03:10:33;;;;;;;8.20;6.30;;;16.00;99.90;;;;;;5040875;28;20189;-78
2021/09/02 03:12:59;;;;;;;9.67;6.50;;;16.00;99.90;;;;;;5040571;28;20205;-81
2021/09/02 03:15:24;;;;;;;11.87;7.17;;;15.90;99.90;;;;;;5038128;28;20196;-80
2021/09/02 03:17:50;;;;;;;8.40;6.07;;;15.90;99.90;;;;;;5037231;28;20181;-81
2021/09/02 03:20:16;;;;;;;8.63;6.50;;;15.90;99.90;;;;;;5039664;28;20204;-82
2021/09/02 03:22:42;;;;;;;9.70;5.97;;;16.00;99.90;;;;;;5038811;28;20199;-81
2021/09/02 03:25:09;;;;;;;7.47;6.10;;;15.90;99.90;;;;;;5037327;28;21000;-80
2021/09/02 03:27:35;;;;;;;7.03;5.83;;;15.90;99.90;;;;;;5036063;28;20412;-80
2021/09/02 03:30:01;;;;;;;5.27;4.77;;;16.00;99.90;;;;;;5036242;28;20416;-79
2021/09/02 03:32:26;;;;;;;6.33;4.97;;;16.00;99.90;;;;;;5036113;28;20213;-80
2021/09/02 03:34:52;;;;;;;8.63;5.77;;;15.90;99.90;;;;;;5036425;28;20439;-80
2021/09/02 03:37:17;;;;;;;8.60;6.00;;;15.90;99.90;;;;;;5035718;28;20498;-80
2021/09/02 03:39:43;;;;;;;6.90;5.20;;;15.90;99.90;;;;;;5036209;28;20292;-80
2021/09/02 03:42:08;;;;;;;6.63;5.00;;;15.90;99.90;;;;;;5038968;28;20178;-81
2021/09/02 03:44:34;;;;;;;9.33;6.00;;;15.90;99.90;;;;;;5039142;28;20197;-80
2021/09/02 03:47:03;;;;;;;8.30;5.57;;;15.90;99.90;;;;;;5024189;28;20192;-80
2021/09/02 03:49:29;;;;;;;6.37;5.10;;;15.90;99.90;;;;;;5008659;28;20185;-80
2021/09/02 03:51:54;;;;;;;6.27;5.20;;;15.90;99.90;;;;;;5040038;28;20571;-81
2021/09/02 03:54:20;;;;;;;11.20;5.80;;;15.90;99.90;;;;;;5034231;28;20198;-80
2021/09/02 03:56:45;;;;;;;8.57;6.07;;;15.90;99.90;;;;;;5035123;28;20196;-80
2021/09/02 03:59:11;;;;;;;11.17;5.33;;;15.90;99.90;;;;;;5036118;28;20177;-80
2021/09/02 04:01:36;;;;;;;7.33;6.00;;;15.90;99.90;;;;;;5035391;28;20174;-79
2021/09/02 04:04:02;;;;;;;8.63;6.23;;;16.00;99.90;;;;;;5033734;28;20181;-80
2021/09/02 04:06:27;;;;;;;9.13;6.17;;;16.00;99.90;;;;;;5034651;28;20166;-80
2021/09/02 04:08:53;;;;;;;12.23;6.27;;;15.90;99.90;;;;;;5037146;28;20170;-81
2021/09/02 04:11:19;;;;;;;8.57;5.80;;;15.90;99.90;;;;;;5035111;28;20170;-81
2021/09/02 04:13:44;;;;;;;9.07;5.80;;;16.00;99.90;;;;;;5035011;28;20641;-81
2021/09/02 04:16:10;;;;;;;6.73;5.60;;;16.00;99.90;;;;;;5037325;28;20228;-79
2021/09/02 04:18:38;;;;;;;8.07;5.70;;;15.90;99.90;;;;;;5035100;28;20177;-80
2021/09/02 04:21:04;;;;;;;12.67;6.40;;;15.90;99.90;;;;;;5034054;28;20181;-79
2021/09/02 04:23:32;;;;;;;11.20;5.97;;;15.80;99.90;;;;;;5033856;28;20416;-80
2021/09/02 04:25:58;;;;;;;7.90;6.40;;;15.80;99.90;;;;;;5034066;28;20435;-81
2021/09/02 04:28:23;;;;;;;8.20;5.60;;;15.80;99.90;;;;;;5035158;28;20416;-80
2021/09/02 04:30:49;;;;;;;13.67;7.30;;;15.80;99.90;;;;;;5035605;28;20899;-80
2021/09/02 04:33:15;;;;;;;7.77;5.67;;;15.80;99.90;;;;;;5040439;28;20199;-80
2021/09/02 04:35:40;;;;;;;10.70;5.77;;;15.60;99.90;;;;;;5038284;28;20193;-79
2021/09/02 04:38:06;;;;;;;10.00;6.90;;;15.60;99.90;;;;;;5034496;28;20174;-81
2021/09/02 04:40:31;;;;;;;9.93;6.87;;;15.70;99.90;;;;;;5034321;28;20169;-79
2021/09/02 04:42:57;;;;;;;14.50;9.27;;;15.50;99.90;;;;;;5033382;28;20177;-80
2021/09/02 04:45:22;;;;;;;11.87;8.47;;;15.50;99.90;;;;;;5032827;28;20197;-80
2021/09/02 04:47:50;;;;;;;7.60;6.20;;;15.60;99.90;;;;;;5035162;28;20173;-81
2021/09/02 04:50:16;;;;;;;9.53;6.97;;;15.60;99.90;;;;;;5033018;28;20239;-79
2021/09/02 04:52:42;;;;;;;9.90;6.40;;;15.60;99.90;;;;;;5032612;28;20498;-79
2021/09/02 04:55:10;;;;;;;8.10;6.37;;;15.70;99.90;;;;;;5032992;28;20451;-79
2021/09/02 04:57:36;;;;;;;13.97;6.97;;;15.60;99.90;;;;;;5033142;28;20470;-79
2021/09/02 05:00:03;;;;;;;8.90;5.83;;;15.60;99.90;;;;;;5033747;28;20923;-79
2021/09/02 05:02:29;;;;;;;11.23;7.27;;;15.60;99.90;;;;;;5033297;28;20856;-80
2021/09/02 05:04:54;;;;;;;9.53;6.13;;;15.60;99.90;;;;;;5031812;28;20526;-80
2021/09/02 05:07:20;;;;;;;7.47;6.27;;;15.60;99.90;;;;;;5032029;28;20459;-79
2021/09/02 05:09:45;;;;;;;7.37;6.03;;;15.60;99.90;;;;;;5015360;28;20220;-79
2021/09/02 05:12:11;;;;;;;11.70;6.67;;;15.60;99.90;;;;;;5031771;28;20204;-79
2021/09/02 05:14:36;;;;;;;13.50;8.40;;;15.60;99.90;;;;;;5031614;28;20262;-79
2021/09/02 05:17:02;;;;;;;9.63;6.30;;;15.60;99.90;;;;;;5035134;28;20505;-80
2021/09/02 05:19:28;;;;;;;10.83;7.20;;;15.50;99.90;;;;;;5032041;28;20173;-79
2021/09/02 05:21:53;;;;;;;10.33;7.27;;;15.60;99.90;;;;;;5031975;28;20181;-80
2021/09/02 05:24:19;;;;;;;11.33;7.10;;;15.60;99.90;;;;;;5033038;28;20276;-80
2021/09/02 05:26:44;;;;;;;9.60;6.90;;;15.60;99.90;;;;;;5033810;28;20201;-80
2021/09/02 05:29:10;;;;;;;11.07;7.07;;;15.60;99.90;;;;;;5035644;28;20185;-81
2021/09/02 05:31:35;;;;;;;9.10;6.00;;;15.70;99.90;;;;;;5037629;28;20188;-81
2021/09/02 05:34:01;;;;;;;10.13;6.30;;;15.60;99.90;;;;;;5037846;28;20177;-81
2021/09/02 05:36:27;;;;;;;11.50;7.20;;;15.70;99.90;;;;;;5038490;28;20173;-80
2021/09/02 05:38:52;;;;;;;9.87;7.20;;;15.60;99.90;;;;;;5036952;28;20482;-80
2021/09/02 05:41:18;;;;;;;14.73;6.70;;;15.60;99.90;;;;;;5037639;28;20177;-80
2021/09/02 05:43:43;;;;;;;9.00;6.80;;;15.70;99.90;;;;;;5021412;28;20182;-80
2021/09/02 05:46:09;;;;;;;11.27;7.40;;;15.70;99.90;;;;;;5038565;28;20197;-82
2021/09/02 05:48:35;;;;;;;12.47;8.07;;;15.80;99.90;;;;;;5038331;28;20188;-79
2021/09/02 05:51:00;;;;;;;18.70;10.07;;;15.80;99.90;;;;;;5037935;28;20197;-79
2021/09/02 05:53:28;;;;;;;13.40;7.50;;;15.90;99.90;;;;;;5036873;28;20209;-81
2021/09/02 05:55:54;;;;;;;11.40;7.27;;;16.10;99.90;;;;;;5036519;28;20276;-80
2021/09/02 05:58:20;;;;;;;11.20;6.43;;;16.20;99.90;;;;;;5036711;28;20428;-81
2021/09/02 06:00:46;;;;;;;11.73;6.83;;;16.40;99.90;;;;;;5042324;28;20169;-81
2021/09/02 06:03:12;;;;;;;9.57;6.93;;;16.70;99.90;;;;;;5053340;28;20918;-79
2021/09/02 06:05:37;;;;;;;12.70;9.20;;;17.00;99.90;;;;;;5042016;28;20443;-81
2021/09/02 06:08:03;;;;;;;13.20;7.57;;;17.30;99.90;;;;;;5038651;28;20290;-79
2021/09/02 06:10:32;;;;;;;10.07;6.60;;;17.40;99.90;;;;;;5043566;28;20523;-83
2021/09/02 06:12:58;;;;;;;12.43;6.07;;;17.60;99.90;;;;;;5038333;28;20221;-79
2021/09/02 06:15:23;;;;;;;8.33;5.90;;;17.80;99.90;;;;;;5037920;28;21155;-81
2021/09/02 06:17:49;;;;;;;10.60;6.77;;;18.00;99.90;;;;;;5037231;28;20173;-81
2021/09/02 06:20:14;;;;;;;13.27;7.13;;;18.10;99.90;;;;;;5016173;28;20181;-80
2021/09/02 06:22:40;;;;;;;12.10;7.37;;;18.20;99.90;;;;;;5020707;28;20192;-81
2021/09/02 06:25:07;;;;;;;9.13;6.30;;;18.40;99.90;;;;;;5019217;28;20221;-80
2021/09/02 06:27:33;;;;;;;10.63;6.30;;;18.40;99.90;;;;;;5036998;28;20572;-80
2021/09/02 06:29:58;;;;;;;10.93;6.63;;;18.60;99.90;;;;;;5029697;28;20444;-85
2021/09/02 06:32:24;;;;;;;10.03;6.30;;;18.70;99.90;;;;;;5051911;28;20209;-81
2021/09/02 06:34:50;;;;;;;8.67;5.90;;;18.90;99.90;;;;;;5018833;28;20205;-80
2021/09/02 06:37:16;;;;;;;10.40;6.57;;;19.10;99.90;;;;;;5035398;28;20185;-80
2021/09/02 06:39:42;;;;;;;7.00;5.60;;;19.10;99.90;;;;;;5038039;28;20219;-82
2021/09/02 06:42:08;;;;;;;13.87;6.10;;;19.10;99.90;;;;;;5002821;28;20811;-79
2021/09/02 06:44:33;;;;;;;8.03;5.33;;;19.10;99.90;;;;;;5016839;28;20661;-80
2021/09/02 06:46:59;;;;;;;10.57;6.47;;;19.40;99.90;;;;;;5037788;28;20584;-82
2021/09/02 06:49:24;;;;;;;8.40;6.00;;;19.50;99.90;;;;;;5036549;28;20196;-79
2021/09/02 06:51:52;;;;;;;10.77;6.00;;;19.50;99.90;;;;;;5035362;28;20208;-80
2021/09/02 06:54:17;;;;;;;13.13;7.00;;;19.70;99.90;;;;;;5000765;28;20274;-79
2021/09/02 06:56:43;;;;;;;9.77;6.50;;;19.70;99.90;;;;;;5034251;28;20748;-80
2021/09/02 06:59:08;;;;;;;10.97;6.47;;;19.70;99.90;;;;;;5050710;28;20193;-79
2021/09/02 07:01:34;;;;;;;15.30;5.30;;;19.70;99.90;;;;;;5033182;28;20173;-79
2021/09/02 07:03:59;;;;;;;10.53;6.90;;;19.50;99.90;;;;;;5032700;28;20179;-79
2021/09/02 07:06:25;;;;;;;10.60;6.27;;;19.60;99.90;;;;;;5034191;28;20180;-79
2021/09/02 07:08:50;;;;;;;10.00;6.30;;;19.60;99.90;;;;;;5047334;28;20182;-80
2021/09/02 07:11:22;;;;;;;9.20;5.47;;;19.80;99.90;;;;;;5054404;28;20180;-80
2021/09/02 07:13:47;;;;;;;8.97;6.10;;;19.80;99.90;;;;;;5029925;28;20197;-79
2021/09/02 07:16:13;;;;;;;13.93;6.40;;;19.80;99.90;;;;;;5032892;28;20453;-79
2021/09/02 07:18:38;;;;;;;9.97;6.10;;;19.80;99.90;;;;;;5034233;28;20181;-79
2021/09/02 07:21:04;;;;;;;12.17;6.37;;;19.90;99.90;;;;;;5032569;28;20269;-78
2021/09/02 07:23:30;;;;;;;7.90;5.70;;;19.80;99.90;;;;;;5032188;28;20674;-79
2021/09/02 07:25:55;;;;;;;8.93;5.40;;;19.60;99.90;;;;;;5033105;28;20274;-79
2021/09/02 07:28:21;;;;;;;9.80;5.00;;;19.60;99.90;;;;;;5033678;28;20194;-78
2021/09/02 07:30:46;;;;;;;10.47;6.07;;;19.70;99.90;;;;;;5032266;28;20274;-79
2021/09/02 07:33:12;;;;;;;8.20;4.53;;;19.80;99.90;;;;;;5022467;28;20212;-80
2021/09/02 07:35:38;;;;;;;9.87;6.70;;;20.00;99.90;;;;;;5032055;28;20242;-79
2021/09/02 07:38:05;;;;;;;7.30;5.80;;;19.90;99.90;;;;;;5033394;28;20183;-79
2021/09/02 07:40:31;;;;;;;7.37;5.87;;;19.80;99.90;;;;;;5015739;28;20514;-79
2021/09/02 07:42:56;;;;;;;13.93;6.40;;;19.90;99.90;;;;;;5033270;28;20868;-80
2021/09/02 07:45:22;;;;;;;10.37;5.70;;;19.80;99.90;;;;;;5050423;28;20194;-81
2021/09/02 07:47:48;;;;;;;11.40;5.90;;;19.80;99.90;;;;;;5049961;28;20263;-79
2021/09/02 07:50:16;;;;;;;9.53;6.53;;;19.90;99.90;;;;;;5033417;28;20186;-79
2021/09/02 07:52:42;;;;;;;11.17;6.30;;;19.60;99.90;;;;;;5031782;28;20212;-80
2021/09/02 07:55:09;;;;;;;8.00;6.40;;;19.60;99.90;;;;;;5033992;28;20470;-80
2021/09/02 07:57:35;;;;;;;10.13;6.87;;;19.40;99.90;;;;;;5034100;28;20168;-80
2021/09/02 08:00:03;;;;;;;9.23;6.57;;;19.40;99.90;;;;;;5033754;28;20426;-78
2021/09/02 08:02:29;;;;;;;5.43;4.90;;;19.30;99.90;;;;;;5015988;28;20828;-80
2021/09/02 08:04:55;;;;;;;6.63;5.10;;;19.40;99.90;;;;;;5031889;28;20453;-79
2021/09/02 08:07:20;;;;;;;6.90;4.93;;;19.50;99.90;;;;;;5031786;28;20599;-79
2021/09/02 08:09:46;;;;;;;11.30;6.73;;;19.60;99.90;;;;;;5034108;28;20419;-78
2021/09/02 08:12:12;;;;;;;8.47;5.90;;;19.30;99.90;;;;;;5036403;28;20225;-80
2021/09/02 08:14:38;;;;;;;9.50;5.50;;;19.10;99.90;;;;;;5037010;28;20953;-80
2021/09/02 08:17:04;;;;;;;10.93;6.03;;;19.20;99.90;;;;;;5015224;28;20425;-80
2021/09/02 08:19:30;;;;;;;7.37;5.93;;;19.50;99.90;;;;;;5017100;28;20731;-81
2021/09/02 08:21:56;;;;;;;7.80;6.27;;;19.60;99.90;;;;;;5039572;28;20471;-80
2021/09/02 08:24:21;;;;;;;7.90;6.00;;;19.60;99.90;;;;;;5054598;28;20316;-81
2021/09/02 08:26:47;;;;;;;7.37;5.13;;;19.60;99.90;;;;;;5034740;28;20186;-81
2021/09/02 08:29:13;;;;;;;6.63;5.70;;;19.70;99.90;;;;;;5033929;28;20191;-80
2021/09/02 08:31:38;;;;;;;7.43;5.70;;;19.20;99.90;;;;;;5034733;28;20204;-79
2021/09/02 08:34:04;;;;;;;10.17;6.10;;;19.40;99.90;;;;;;5035467;28;20183;-80
2021/09/02 08:36:30;;;;;;;7.07;5.93;;;19.40;99.90;;;;;;5033401;28;20174;-81
2021/09/02 08:38:55;;;;;;;8.23;5.80;;;19.30;99.90;;;;;;5036597;28;20173;-80
2021/09/02 08:41:21;;;;;;;8.30;5.63;;;19.30;99.90;;;;;;5035474;28;20256;-80
2021/09/02 08:43:47;;;;;;;7.17;5.83;;;19.60;99.90;;;;;;5023880;28;20185;-80
2021/09/02 08:46:13;;;;;;;9.63;6.43;;;19.80;99.90;;;;;;5047633;28;20218;-80
2021/09/02 08:48:44;;;;;;;7.87;6.03;;;19.80;99.90;;;;;;5048529;28;20527;-80
2021/09/02 08:51:10;;;;;;;9.60;5.43;;;19.60;99.90;;;;;;5046144;28;20422;-80
2021/09/02 08:53:35;;;;;;;8.23;5.60;;;19.60;99.90;;;;;;5057279;28;20468;-80
2021/09/02 08:56:01;;;;;;;9.87;6.80;;;19.70;99.90;;;;;;5039976;28;20218;-80
2021/09/02 08:58:27;;;;;;;9.93;5.40;;;19.40;99.90;;;;;;5036959;28;20734;-81
2021/09/02 09:00:52;;;;;;;8.40;6.03;;;19.60;99.90;;;;;;5036489;28;20214;-80
2021/09/02 09:03:19;;;;;;;7.07;5.07;;;19.60;99.90;;;;;;5021544;28;20197;-81
2021/09/02 09:05:53;;;;;;;7.03;5.60;;;19.50;99.90;;;;;;5040132;28;20265;-81
2021/09/02 09:08:18;;;;;;;13.13;6.73;;;19.70;99.90;;;;;;5024103;28;20489;-81
2021/09/02 09:10:45;;;;;;;7.37;5.70;;;19.50;99.90;;;;;;5024623;28;20452;-79
2021/09/02 09:13:11;;;;;;;10.37;5.30;;;19.50;99.90;;;;;;5039642;28;20331;-81
2021/09/02 09:15:42;;;;;;;11.70;6.77;;;19.70;99.90;;;;;;5025606;28;20448;-80
2021/09/02 09:18:24;;;;;;;10.67;7.13;;;19.70;99.90;;;;;;5043503;28;20409;-81
2021/09/02 09:21:12;;;;;;;8.67;5.53;;;19.40;99.90;;;;;;5041496;28;20410;-79
2021/09/02 09:23:53;;;;;;;8.60;6.70;;;19.40;99.90;;;;;;5043984;28;20428;-80
2021/09/02 09:26:19;;;;;;;10.17;5.80;;;19.10;99.90;;;;;;5041031;28;20530;-81
2021/09/02 09:28:44;;;;;;;11.53;6.63;;;19.40;99.90;;;;;;5042687;28;20424;-79
2021/09/02 09:31:30;;;;;;;9.30;6.03;;;19.40;99.90;;;;;;5028350;28;21027;-80
2021/09/02 09:33:58;;;;;;;8.90;6.53;;;19.50;99.90;;;;;;5044591;28;20212;-80
2021/09/02 09:36:25;;;;;;;9.40;6.50;;;19.60;99.90;;;;;;5043214;28;20478;-79
2021/09/02 09:39:09;;;;;;;12.77;8.30;;;19.60;99.90;;;;;;5054779;28;20895;-79
2021/09/02 09:41:39;;;;;;;8.33;7.13;;;19.30;99.90;;;;;;5054499;28;20434;-81
2021/09/02 09:44:14;;;;;;;8.63;7.20;;;19.50;99.90;;;;;;5055219;28;20412;-80
2021/09/02 09:46:40;;;;;;;7.10;6.07;;;19.40;99.90;;;;;;5065384;28;20449;-81
2021/09/02 09:49:05;;;;;;;8.20;7.30;;;19.10;99.90;;;;;;5054314;28;20416;-81
2021/09/02 09:51:31;;;;;;;8.60;7.00;;;19.10;99.90;;;;;;5039936;28;20174;-79
2021/09/02 09:53:56;;;;;;;10.23;7.60;;;18.90;99.90;;;;;;5038750;28;20223;-79
2021/09/02 09:56:24;;;;;;;8.40;6.17;;;18.80;99.90;;;;;;5022527;28;20219;-80
2021/09/02 09:58:52;;;;;;;8.13;5.90;;;19.10;99.90;;;;;;5042112;28;20573;-80
2021/09/02 10:01:19;;;;;;;6.10;5.50;;;19.20;99.90;;;;;;5049677;28;20432;-81
2021/09/02 10:03:50;;;;;;;8.63;6.63;;;19.30;99.90;;;;;;5053697;28;20408;-80
2021/09/02 10:06:18;;;;;;;9.40;7.03;;;19.30;99.90;;;;;;5024748;28;20476;-80
2021/09/02 10:08:44;;;;;;;8.80;7.03;;;19.30;99.90;;;;;;5033865;28;20486;-79
2021/09/02 10:11:13;;;;;;;7.97;6.30;;;19.10;99.90;;;;;;5049473;28;20479;-80
2021/09/02 10:13:39;;;;;;;7.40;5.80;;;19.30;99.90;;;;;;5061673;28;20549;-79
2021/09/02 10:16:06;;;;;;;8.80;6.83;;;19.40;99.90;;;;;;5067089;28;20431;-81
2021/09/02 10:18:35;;;;;;;9.07;7.07;;;19.10;99.90;;;;;;5043987;28;20424;-81
2021/09/02 10:21:03;;;;;;;10.50;7.10;;;19.00;99.90;;;;;;5045979;28;20511;-80
2021/09/02 10:23:29;;;;;;;7.80;6.13;;;19.30;99.90;;;;;;5044094;28;20760;-81
2021/09/02 10:25:54;;;;;;;9.47;6.30;;;19.30;99.90;;;;;;5044071;28;20455;-79
2021/09/02 10:28:34;;;;;;;7.70;6.20;;;19.00;99.90;;;;;;5048915;28;20178;-81
2021/09/02 10:31:06;;;;;;;9.20;6.67;;;19.00;99.90;;;;;;5019765;28;20544;-81
2021/09/02 10:33:45;;;;;;;7.93;6.83;;;18.70;99.90;;;;;;5030955;28;20502;-80
2021/09/02 10:36:10;;;;;;;9.40;6.00;;;18.20;99.90;;;;;;5057598;28;20435;-81
2021/09/02 10:38:40;;;;;;;9.60;6.90;;;18.50;99.90;;;;;;5056518;28;20750;-81
2021/09/02 10:41:07;;;;;;;12.43;6.90;;;18.60;99.90;;;;;;5047402;28;20259;-80
2021/09/02 10:43:53;;;;;;;8.63;6.30;;;18.60;99.90;;;;;;5047949;28;20432;-81
2021/09/02 10:46:39;;;;;;;8.10;5.77;;;18.80;99.90;;;;;;5035128;28;20550;-81
2021/09/02 10:49:13;;;;;;;9.07;6.60;;;19.10;99.90;;;;;;5039043;28;20420;-81
2021/09/02 10:51:41;;;;;;;8.53;6.90;;;19.10;99.90;;;;;;5039936;28;20431;-81
2021/09/02 10:54:09;;;;;;;9.27;6.47;;;19.00;99.90;;;;;;5037677;28;20519;-79
2021/09/02 10:56:51;;;;;;;9.40;7.40;;;18.90;99.90;;;;;;5040314;28;20444;-80
2021/09/02 10:59:46;;;;;;;10.87;7.13;;;19.00;99.90;;;;;;5052833;28;20411;-81
2021/09/02 11:02:17;;;;;;;12.33;6.97;;;19.10;99.90;;;;;;5043473;28;20415;-80
2021/09/02 11:04:55;;;;;;;10.40;7.70;;;19.20;99.90;;;;;;5072469;28;20520;-80
2021/09/02 11:07:42;;;;;;;10.67;7.63;;;19.00;99.90;;;;;;5063452;28;20886;-81
2021/09/02 11:10:14;;;;;;;9.23;6.97;;;18.90;99.90;;;;;;5067074;28;20775;-80
2021/09/02 11:12:40;;;;;;;8.57;6.00;;;19.00;99.90;;;;;;5053085;28;20482;-80
2021/09/02 11:15:07;;;;;;;10.57;6.33;;;19.40;99.90;;;;;;5037934;28;20515;-81
2021/09/02 11:17:36;;;;;;;7.97;5.27;;;19.50;99.90;;;;;;5021008;28;20428;-81
2021/09/02 11:20:17;;;;;;;8.77;6.73;;;19.50;99.90;;;;;;5035883;28;20411;-80
2021/09/02 11:22:43;;;;;;;9.00;6.33;;;19.70;99.90;;;;;;5037841;28;20421;-80
2021/09/02 11:25:09;;;;;;;12.63;6.67;;;19.80;99.90;;;;;;5036926;28;20475;-80
2021/09/02 11:27:34;;;;;;;11.17;7.60;;;19.50;99.90;;;;;;5037502;28;20174;-80
2021/09/02 11:30:22;;;;;;;12.10;6.57;;;19.40;99.90;;;;;;5037725;28;20455;-79
2021/09/02 11:32:59;;;;;;;10.33;7.90;;;19.10;99.90;;;;;;5023578;28;20463;-81
2021/09/02 11:35:25;;;;;;;10.10;7.00;;;19.30;99.90;;;;;;5038504;28;20439;-80
2021/09/02 11:37:53;;;;;;;8.30;7.00;;;19.50;99.90;;;;;;5039583;28;20503;-80
2021/09/02 11:40:33;;;;;;;14.87;8.33;;;19.60;99.90;;;;;;5039585;28;20659;-81
2021/09/02 11:43:00;;;;;;;9.33;6.83;;;19.50;99.90;;;;;;5036986;28;20419;-81
2021/09/02 11:45:32;;;;;;;10.93;6.90;;;19.60;99.90;;;;;;5037139;28;20461;-82
2021/09/02 11:48:05;;;;;;;11.40;8.40;;;19.70;99.90;;;;;;5038475;28;20512;-80
2021/09/02 11:50:32;;;;;;;12.83;8.50;;;19.80;99.90;;;;;;5038571;28;20436;-79
2021/09/02 11:52:57;;;;;;;9.57;7.10;;;20.00;99.90;;;;;;5038876;28;20452;-80
2021/09/02 11:55:27;;;;;;;9.00;7.03;;;19.30;99.90;;;;;;5038028;28;20456;-80
2021/09/02 11:57:58;;;;;;;13.53;9.50;;;19.40;99.90;;;;;;5042472;28;20332;-82
2021/09/02 12:00:42;;;;;;;11.27;6.40;;;19.50;99.90;;;;;;5043330;28;20452;-80
2021/09/02 12:03:08;;;;;;;9.43;7.20;;;19.50;99.90;;;;;;5043464;28;20419;-82
2021/09/02 12:05:38;;;;;;;8.50;7.10;;;19.40;99.90;;;;;;5045834;28;20490;-79
2021/09/02 12:08:09;;;;;;;9.60;7.13;;;19.60;99.90;;;;;;5043763;28;20181;-81
2021/09/02 12:10:36;;;;;;;10.97;7.00;;;19.90;99.90;;;;;;5038657;28;20983;-80
2021/09/02 12:13:26;;;;;;;11.53;7.33;;;19.80;99.90;;;;;;5022312;28;20466;-80
2021/09/02 12:16:16;;;;;;;11.53;6.90;;;20.00;99.90;;;;;;5021584;28;20967;-79
2021/09/02 12:18:45;;;;;;;7.80;6.30;;;20.10;99.90;;;;;;5038380;28;20464;-81
2021/09/02 12:21:19;;;;;;;8.80;6.53;;;20.10;99.90;;;;;;5038715;28;20784;-81
2021/09/02 12:23:49;;;;;;;8.13;6.43;;;20.10;99.90;;;;;;5038629;28;20408;-81
2021/09/02 12:26:15;;;;;;;11.60;7.07;;;20.10;99.90;;;;;;5043284;28;20453;-80
2021/09/02 12:28:44;;;;;;;8.40;6.50;;;20.20;99.90;;;;;;5056712;28;20428;-80
2021/09/02 12:31:33;;;;;;;11.30;6.20;;;20.00;99.90;;;;;;5039105;28;20493;-80
2021/09/02 12:34:03;;;;;;;8.73;6.30;;;20.10;99.90;;;;;;5054674;28;20469;-81
2021/09/02 12:36:32;;;;;;;9.03;6.87;;;20.10;99.90;;;;;;5055558;28;20465;-81
2021/09/02 12:39:21;;;;;;;10.13;7.40;;;20.00;99.90;;;;;;5053686;28;20455;-81
2021/09/02 12:41:54;;;;;;;9.73;6.80;;;20.10;99.90;;;;;;5056239;28;20412;-80
2021/09/02 12:44:37;;;;;;;8.50;6.03;;;20.00;99.90;;;;;;5055041;28;20453;-80